sensor_id;sensor_type;location;lat;lon;timestamp;pressure;altitude;pressure_sealevel;temperature;humidity
6433;BME280;3249;42.690;23.260;2023-04-22T00:00:10;93932.94;;;7.17;100.00
6433;BME280;3249;42.690;23.260;2023-04-22T00:02:39;93932.28;;;7.28;100.00
6433;BME280;3249;42.690;23.260;2023-04-22T00:05:09;93939.72;;;7.36;100.00
6433;BME280;3249;42.690;23.260;2023-04-22T00:07:39;93938.75;;;7.37;100.00
6433;BME280;3249;42.690;23.260;2023-04-22T00:10:09;93907.31;;;7.24;100.00
6433;BME280;3249;42.690;23.260;2023-04-22T00:12:41;93936.72;;;7.46;100.00
6433;BME280;3249;42.690;23.260;2023-04-22T00:15:10;93931.59;;;7.46;100.00
6433;BME280;3249;42.690;23.260;2023-04-22T00:17:39;93933.16;;;7.53;100.00
6433;BME280;3249;42.690;23.260;2023-04-22T00:20:11;93942.88;;;7.38;100.00
6433;BME280;3249;42.690;23.260;2023-04-22T00:22:40;93934.78;;;7.41;100.00
6433;BME280;3249;42.690;23.260;2023-04-22T00:25:09;93940.44;;;7.50;100.00
6433;BME280;3249;42.690;23.260;2023-04-22T00:27:38;93935.28;;;7.56;100.00
6433;BME280;3249;42.690;23.260;2023-04-22T00:30:10;93939.91;;;7.41;100.00
6433;BME280;3249;42.690;23.260;2023-04-22T00:32:39;93934.78;;;7.41;100.00
6433;BME280;3249;42.690;23.260;2023-04-22T00:35:08;93936.16;;;7.44;100.00
6433;BME280;3249;42.690;23.260;2023-04-22T00:37:37;93937.13;;;7.49;100.00
6433;BME280;3249;42.690;23.260;2023-04-22T00:40:08;93936.94;;;7.44;100.00
6433;BME280;3249;42.690;23.260;2023-04-22T00:42:38;93940.34;;;7.32;100.00
6433;BME280;3249;42.690;23.260;2023-04-22T00:45:11;93934.25;;;7.33;100.00
6433;BME280;3249;42.690;23.260;2023-04-22T00:47:43;93938.00;;;7.30;100.00
6433;BME280;3249;42.690;23.260;2023-04-22T00:50:13;93934.13;;;7.15;100.00
6433;BME280;3249;42.690;23.260;2023-04-22T00:52:42;93948.69;;;7.14;100.00
6433;BME280;3249;42.690;23.260;2023-04-22T00:55:11;93951.81;;;7.16;100.00
6433;BME280;3249;42.690;23.260;2023-04-22T00:57:41;93954.19;;;7.18;100.00
6433;BME280;3249;42.690;23.260;2023-04-22T01:00:13;93950.53;;;6.94;100.00
6433;BME280;3249;42.690;23.260;2023-04-22T01:02:43;93951.88;;;7.03;100.00
6433;BME280;3249;42.690;23.260;2023-04-22T01:05:12;93957.81;;;7.04;100.00
6433;BME280;3249;42.690;23.260;2023-04-22T01:07:41;93949.97;;;6.86;100.00
6433;BME280;3249;42.690;23.260;2023-04-22T01:10:10;93952.56;;;6.79;100.00
6433;BME280;3249;42.690;23.260;2023-04-22T01:12:40;93946.88;;;6.58;100.00
6433;BME280;3249;42.690;23.260;2023-04-22T01:15:13;93943.75;;;6.49;100.00
6433;BME280;3249;42.690;23.260;2023-04-22T01:17:42;93948.91;;;6.30;100.00
6433;BME280;3249;42.690;23.260;2023-04-22T01:20:11;93951.84;;;6.14;100.00
6433;BME280;3249;42.690;23.260;2023-04-22T01:22:42;93900.16;;;5.79;100.00
6433;BME280;3249;42.690;23.260;2023-04-22T01:25:15;93924.94;;;6.11;100.00
6433;BME280;3249;42.690;23.260;2023-04-22T01:27:44;93956.34;;;6.44;100.00
6433;BME280;3249;42.690;23.260;2023-04-22T01:30:14;93946.91;;;6.32;100.00
6433;BME280;3249;42.690;23.260;2023-04-22T01:32:43;93951.66;;;6.28;100.00
6433;BME280;3249;42.690;23.260;2023-04-22T01:35:12;93955.34;;;6.45;100.00
6433;BME280;3249;42.690;23.260;2023-04-22T01:37:41;93926.88;;;6.35;100.00
6433;BME280;3249;42.690;23.260;2023-04-22T01:40:11;93951.22;;;6.57;100.00
6433;BME280;3249;42.690;23.260;2023-04-22T01:42:47;93951.00;;;6.65;100.00
6433;BME280;3249;42.690;23.260;2023-04-22T01:45:16;93948.69;;;6.44;100.00
6433;BME280;3249;42.690;23.260;2023-04-22T01:47:45;93910.53;;;6.36;100.00
6433;BME280;3249;42.690;23.260;2023-04-22T01:50:15;93948.88;;;6.36;100.00
6433;BME280;3249;42.690;23.260;2023-04-22T01:52:44;93925.50;;;6.20;100.00
6433;BME280;3249;42.690;23.260;2023-04-22T01:55:14;93924.91;;;6.31;100.00
6433;BME280;3249;42.690;23.260;2023-04-22T01:57:43;93936.91;;;6.37;100.00
6433;BME280;3249;42.690;23.260;2023-04-22T02:00:15;93936.72;;;6.12;100.00
6433;BME280;3249;42.690;23.260;2023-04-22T02:02:47;93937.31;;;6.27;100.00
6433;BME280;3249;42.690;23.260;2023-04-22T02:05:16;93935.53;;;6.34;100.00
6433;BME280;3249;42.690;23.260;2023-04-22T02:07:45;93939.84;;;6.40;100.00
6433;BME280;3249;42.690;23.260;2023-04-22T02:10:15;93939.03;;;6.40;100.00
6433;BME280;3249;42.690;23.260;2023-04-22T02:12:44;93939.25;;;6.38;100.00
6433;BME280;3249;42.690;23.260;2023-04-22T02:15:16;93934.34;;;6.43;100.00
6433;BME280;3249;42.690;23.260;2023-04-22T02:17:45;93936.50;;;6.46;100.00
6433;BME280;3249;42.690;23.260;2023-04-22T02:20:15;93937.69;;;6.31;100.00
6433;BME280;3249;42.690;23.260;2023-04-22T02:22:44;93932.75;;;6.36;100.00
6433;BME280;3249;42.690;23.260;2023-04-22T02:25:13;93933.53;;;6.36;100.00
6433;BME280;3249;42.690;23.260;2023-04-22T02:27:42;93940.63;;;6.47;100.00
6433;BME280;3249;42.690;23.260;2023-04-22T02:30:11;93939.06;;;6.46;100.00
6433;BME280;3249;42.690;23.260;2023-04-22T02:32:43;93940.59;;;6.60;100.00
6433;BME280;3249;42.690;23.260;2023-04-22T02:35:12;93933.31;;;6.64;100.00
6433;BME280;3249;42.690;23.260;2023-04-22T02:37:41;93940.16;;;6.76;100.00
6433;BME280;3249;42.690;23.260;2023-04-22T02:40:11;93946.63;;;6.85;100.00
6433;BME280;3249;42.690;23.260;2023-04-22T02:42:40;93952.81;;;6.58;100.00
6433;BME280;3249;42.690;23.260;2023-04-22T02:45:10;93947.66;;;6.65;100.00
6433;BME280;3249;42.690;23.260;2023-04-22T02:47:39;93946.91;;;6.51;100.00
6433;BME280;3249;42.690;23.260;2023-04-22T02:50:11;93923.72;;;6.33;100.00
6433;BME280;3249;42.690;23.260;2023-04-22T02:52:40;93956.91;;;6.59;100.00
6433;BME280;3249;42.690;23.260;2023-04-22T02:55:09;93956.72;;;6.67;100.00
6433;BME280;3249;42.690;23.260;2023-04-22T02:57:38;93949.63;;;6.63;100.00
6433;BME280;3249;42.690;23.260;2023-04-22T03:00:08;93966.34;;;6.72;100.00
6433;BME280;3249;42.690;23.260;2023-04-22T03:02:38;93967.94;;;6.66;100.00
6433;BME280;3249;42.690;23.260;2023-04-22T03:05:13;93964.34;;;6.80;100.00
6433;BME280;3249;42.690;23.260;2023-04-22T03:07:42;93961.84;;;6.54;100.00
6433;BME280;3249;42.690;23.260;2023-04-22T03:10:14;93962.81;;;6.53;100.00
6433;BME280;3249;42.690;23.260;2023-04-22T03:12:43;93957.53;;;6.35;100.00
6433;BME280;3249;42.690;23.260;2023-04-22T03:15:13;93958.72;;;6.20;100.00
6433;BME280;3249;42.690;23.260;2023-04-22T03:17:42;93951.84;;;6.20;100.00
6433;BME280;3249;42.690;23.260;2023-04-22T03:20:16;93958.31;;;6.36;100.00
6433;BME280;3249;42.690;23.260;2023-04-22T03:22:46;93902.91;;;5.71;100.00
6433;BME280;3249;42.690;23.260;2023-04-22T03:25:15;93923.31;;;5.71;100.00
6433;BME280;3249;42.690;23.260;2023-04-22T03:27:51;93962.84;;;6.01;100.00
6433;BME280;3249;42.690;23.260;2023-04-22T03:30:20;93963.25;;;6.18;100.00
6433;BME280;3249;42.690;23.260;2023-04-22T03:32:49;93974.84;;;6.27;100.00
6433;BME280;3249;42.690;23.260;2023-04-22T03:35:34;93963.03;;;6.32;100.00
6433;BME280;3249;42.690;23.260;2023-04-22T03:38:03;93963.84;;;6.39;100.00
6433;BME280;3249;42.690;23.260;2023-04-22T03:40:34;93967.94;;;6.47;100.00
6433;BME280;3249;42.690;23.260;2023-04-22T03:43:11;93970.50;;;6.40;100.00
6433;BME280;3249;42.690;23.260;2023-04-22T03:45:43;93977.59;;;6.12;100.00
6433;BME280;3249;42.690;23.260;2023-04-22T03:48:17;93968.38;;;5.98;100.00
6433;BME280;3249;42.690;23.260;2023-04-22T03:50:52;93972.09;;;6.15;100.00
6433;BME280;3249;42.690;23.260;2023-04-22T03:53:22;93977.59;;;6.38;100.00
6433;BME280;3249;42.690;23.260;2023-04-22T03:55:51;93980.16;;;6.38;100.00
6433;BME280;3249;42.690;23.260;2023-04-22T03:58:20;93974.44;;;6.43;100.00
6433;BME280;3249;42.690;23.260;2023-04-22T04:00:50;93986.00;;;6.71;100.00
6433;BME280;3249;42.690;23.260;2023-04-22T04:03:19;93993.41;;;7.05;100.00
6433;BME280;3249;42.690;23.260;2023-04-22T04:05:53;93995.66;;;7.39;100.00
6433;BME280;3249;42.690;23.260;2023-04-22T04:08:22;93999.44;;;7.30;100.00
6433;BME280;3249;42.690;23.260;2023-04-22T04:10:52;94003.63;;;7.62;100.00
6433;BME280;3249;42.690;23.260;2023-04-22T04:13:22;93998.63;;;7.74;100.00
6433;BME280;3249;42.690;23.260;2023-04-22T04:16:09;94003.53;;;8.13;100.00
6433;BME280;3249;42.690;23.260;2023-04-22T04:18:40;94001.28;;;8.29;100.00
6433;BME280;3249;42.690;23.260;2023-04-22T04:21:14;94010.22;;;8.45;100.00
6433;BME280;3249;42.690;23.260;2023-04-22T04:23:47;94007.34;;;8.59;100.00
6433;BME280;3249;42.690;23.260;2023-04-22T04:26:18;94008.78;;;8.24;100.00
6433;BME280;3249;42.690;23.260;2023-04-22T04:28:53;94019.31;;;8.41;100.00
6433;BME280;3249;42.690;23.260;2023-04-22T04:31:23;94015.28;;;8.20;100.00
6433;BME280;3249;42.690;23.260;2023-04-22T04:33:55;94020.41;;;8.20;100.00
6433;BME280;3249;42.690;23.260;2023-04-22T04:36:29;94024.41;;;8.47;100.00
6433;BME280;3249;42.690;23.260;2023-04-22T04:39:08;94023.78;;;8.76;100.00
6433;BME280;3249;42.690;23.260;2023-04-22T04:41:37;94018.34;;;8.66;100.00
6433;BME280;3249;42.690;23.260;2023-04-22T04:44:06;94035.66;;;8.46;100.00
6433;BME280;3249;42.690;23.260;2023-04-22T04:46:37;94031.75;;;8.68;100.00
6433;BME280;3249;42.690;23.260;2023-04-22T04:49:07;94013.06;;;8.79;100.00
6433;BME280;3249;42.690;23.260;2023-04-22T04:51:49;94031.69;;;9.17;100.00
6433;BME280;3249;42.690;23.260;2023-04-22T04:54:18;94033.09;;;9.31;100.00
6433;BME280;3249;42.690;23.260;2023-04-22T04:56:47;94031.81;;;9.40;100.00
6433;BME280;3249;42.690;23.260;2023-04-22T04:59:17;94044.94;;;9.69;100.00
6433;BME280;3249;42.690;23.260;2023-04-22T05:01:47;94055.19;;;9.87;100.00
6433;BME280;3249;42.690;23.260;2023-04-22T05:04:16;94050.75;;;9.94;100.00
6433;BME280;3249;42.690;23.260;2023-04-22T05:06:45;94047.75;;;9.97;100.00
6433;BME280;3249;42.690;23.260;2023-04-22T05:09:16;94050.94;;;9.44;100.00
6433;BME280;3249;42.690;23.260;2023-04-22T05:11:48;94053.06;;;9.66;100.00
6433;BME280;3249;42.690;23.260;2023-04-22T05:14:20;94054.03;;;9.83;100.00
6433;BME280;3249;42.690;23.260;2023-04-22T05:16:49;94058.47;;;9.94;100.00
6433;BME280;3249;42.690;23.260;2023-04-22T05:19:18;94058.22;;;9.66;100.00
6433;BME280;3249;42.690;23.260;2023-04-22T05:21:47;94061.91;;;9.51;100.00
6433;BME280;3249;42.690;23.260;2023-04-22T05:24:19;94060.84;;;9.41;100.00
6433;BME280;3249;42.690;23.260;2023-04-22T05:26:49;94055.50;;;9.42;100.00
6433;BME280;3249;42.690;23.260;2023-04-22T05:29:19;94060.00;;;9.11;100.00
6433;BME280;3249;42.690;23.260;2023-04-22T05:31:48;94055.94;;;9.21;100.00
6433;BME280;3249;42.690;23.260;2023-04-22T05:34:17;94061.00;;;9.64;100.00
6433;BME280;3249;42.690;23.260;2023-04-22T05:36:46;94064.44;;;9.58;100.00
6433;BME280;3249;42.690;23.260;2023-04-22T05:39:16;94051.34;;;9.59;100.00
6433;BME280;3249;42.690;23.260;2023-04-22T05:41:47;94044.09;;;9.38;100.00
6433;BME280;3249;42.690;23.260;2023-04-22T05:44:16;94069.34;;;9.59;100.00
6433;BME280;3249;42.690;23.260;2023-04-22T05:46:46;94046.63;;;9.75;100.00
6433;BME280;3249;42.690;23.260;2023-04-22T05:49:17;94072.88;;;10.13;100.00
6433;BME280;3249;42.690;23.260;2023-04-22T05:52:11;94035.25;;;9.52;100.00
6433;BME280;3249;42.690;23.260;2023-04-22T05:54:55;94070.44;;;9.70;100.00
6433;BME280;3249;42.690;23.260;2023-04-22T05:57:27;94067.03;;;10.06;100.00
6433;BME280;3249;42.690;23.260;2023-04-22T05:59:58;94074.53;;;10.07;100.00
6433;BME280;3249;42.690;23.260;2023-04-22T06:02:28;94069.72;;;10.40;100.00
6433;BME280;3249;42.690;23.260;2023-04-22T06:04:57;94073.97;;;10.76;100.00
6433;BME280;3249;42.690;23.260;2023-04-22T06:07:26;94070.28;;;10.95;100.00
6433;BME280;3249;42.690;23.260;2023-04-22T06:09:57;94072.41;;;11.21;100.00
6433;BME280;3249;42.690;23.260;2023-04-22T06:12:30;94060.75;;;10.95;100.00
6433;BME280;3249;42.690;23.260;2023-04-22T06:14:59;94068.97;;;11.27;100.00
6433;BME280;3249;42.690;23.260;2023-04-22T06:17:28;94072.41;;;11.32;100.00
6433;BME280;3249;42.690;23.260;2023-04-22T06:19:57;94072.19;;;11.34;100.00
6433;BME280;3249;42.690;23.260;2023-04-22T06:22:26;94069.63;;;11.22;100.00
6433;BME280;3249;42.690;23.260;2023-04-22T06:24:55;94076.66;;;11.38;100.00
6433;BME280;3249;42.690;23.260;2023-04-22T06:27:24;94060.44;;;11.26;100.00
6433;BME280;3249;42.690;23.260;2023-04-22T06:29:59;94045.88;;;10.97;100.00
6433;BME280;3249;42.690;23.260;2023-04-22T06:32:29;94074.97;;;11.32;100.00
6433;BME280;3249;42.690;23.260;2023-04-22T06:34:58;94079.56;;;11.42;100.00
6433;BME280;3249;42.690;23.260;2023-04-22T06:37:28;94073.97;;;11.45;100.00
6433;BME280;3249;42.690;23.260;2023-04-22T06:39:57;94076.47;;;11.63;100.00
6433;BME280;3249;42.690;23.260;2023-04-22T06:42:44;94072.06;;;11.06;100.00
6433;BME280;3249;42.690;23.260;2023-04-22T06:45:35;94075.44;;;11.41;100.00
6433;BME280;3249;42.690;23.260;2023-04-22T06:48:24;94076.66;;;11.73;100.00
6433;BME280;3249;42.690;23.260;2023-04-22T06:51:28;94085.22;;;12.01;100.00
6433;BME280;3249;42.690;23.260;2023-04-22T06:53:58;94075.88;;;11.72;100.00
6433;BME280;3249;42.690;23.260;2023-04-22T06:56:27;94082.13;;;12.16;100.00
6433;BME280;3249;42.690;23.260;2023-04-22T06:58:56;94084.91;;;12.26;100.00
6433;BME280;3249;42.690;23.260;2023-04-22T07:01:28;94089.34;;;12.02;100.00
6433;BME280;3249;42.690;23.260;2023-04-22T07:03:57;94088.34;;;12.03;100.00
6433;BME280;3249;42.690;23.260;2023-04-22T07:06:26;94082.22;;;12.21;100.00
6433;BME280;3249;42.690;23.260;2023-04-22T07:08:55;94044.72;;;12.30;100.00
6433;BME280;3249;42.690;23.260;2023-04-22T07:11:25;94095.03;;;12.16;100.00
6433;BME280;3249;42.690;23.260;2023-04-22T07:14:16;94090.03;;;12.37;100.00
6433;BME280;3249;42.690;23.260;2023-04-22T07:16:48;94089.06;;;12.43;100.00
6433;BME280;3249;42.690;23.260;2023-04-22T07:19:17;94088.66;;;12.63;100.00
6433;BME280;3249;42.690;23.260;2023-04-22T07:21:46;94064.13;;;12.32;100.00
6433;BME280;3249;42.690;23.260;2023-04-22T07:24:15;94091.13;;;12.41;100.00
6433;BME280;3249;42.690;23.260;2023-04-22T07:26:44;94089.31;;;12.14;100.00
6433;BME280;3249;42.690;23.260;2023-04-22T07:29:13;94077.63;;;12.23;100.00
6433;BME280;3249;42.690;23.260;2023-04-22T07:31:42;94097.84;;;12.14;100.00
6433;BME280;3249;42.690;23.260;2023-04-22T07:34:14;94103.97;;;12.53;100.00
6433;BME280;3249;42.690;23.260;2023-04-22T07:36:43;94089.28;;;12.53;100.00
6433;BME280;3249;42.690;23.260;2023-04-22T07:39:12;94101.53;;;12.91;98.58
6433;BME280;3249;42.690;23.260;2023-04-22T07:41:41;94098.06;;;12.85;97.29
6433;BME280;3249;42.690;23.260;2023-04-22T07:44:10;94097.69;;;13.26;93.32
6433;BME280;3249;42.690;23.260;2023-04-22T07:46:43;94100.34;;;13.48;91.33
6433;BME280;3249;42.690;23.260;2023-04-22T07:49:15;94099.47;;;13.59;90.03
6433;BME280;3249;42.690;23.260;2023-04-22T07:51:45;94103.47;;;13.88;88.09
6433;BME280;3249;42.690;23.260;2023-04-22T07:54:14;94097.19;;;13.84;85.09
6433;BME280;3249;42.690;23.260;2023-04-22T07:56:43;94095.50;;;14.16;83.72
6433;BME280;3249;42.690;23.260;2023-04-22T07:59:12;94090.00;;;13.86;84.44
6433;BME280;3249;42.690;23.260;2023-04-22T08:01:41;94075.03;;;13.50;87.72
6433;BME280;3249;42.690;23.260;2023-04-22T08:04:11;94088.44;;;13.85;86.22
6433;BME280;3249;42.690;23.260;2023-04-22T08:06:43;94091.13;;;13.73;87.63
6433;BME280;3249;42.690;23.260;2023-04-22T08:09:12;94080.47;;;13.70;86.80
6433;BME280;3249;42.690;23.260;2023-04-22T08:11:42;94087.41;;;13.48;84.42
6433;BME280;3249;42.690;23.260;2023-04-22T08:14:11;94078.56;;;13.44;85.09
6433;BME280;3249;42.690;23.260;2023-04-22T08:16:41;94081.31;;;13.54;84.13
6433;BME280;3249;42.690;23.260;2023-04-22T08:19:11;94065.56;;;13.77;82.89
6433;BME280;3249;42.690;23.260;2023-04-22T08:21:42;94087.22;;;14.14;79.22
6433;BME280;3249;42.690;23.260;2023-04-22T08:24:13;94084.88;;;13.91;78.35
6433;BME280;3249;42.690;23.260;2023-04-22T08:26:42;94088.72;;;13.88;80.24
6433;BME280;3249;42.690;23.260;2023-04-22T08:29:12;94047.19;;;13.78;79.35
6433;BME280;3249;42.690;23.260;2023-04-22T08:31:42;94076.88;;;14.14;79.33
6433;BME280;3249;42.690;23.260;2023-04-22T08:34:11;94075.56;;;14.33;76.60
6433;BME280;3249;42.690;23.260;2023-04-22T08:36:43;94079.19;;;14.59;76.00
6433;BME280;3249;42.690;23.260;2023-04-22T08:39:13;94064.97;;;14.61;73.94
6433;BME280;3249;42.690;23.260;2023-04-22T08:41:42;94068.03;;;14.32;76.41
6433;BME280;3249;42.690;23.260;2023-04-22T08:44:13;94071.47;;;14.37;74.08
6433;BME280;3249;42.690;23.260;2023-04-22T08:46:43;94064.31;;;14.49;72.32
6433;BME280;3249;42.690;23.260;2023-04-22T08:49:15;94065.97;;;14.87;68.96
6433;BME280;3249;42.690;23.260;2023-04-22T08:51:48;94075.22;;;15.09;66.27
6433;BME280;3249;42.690;23.260;2023-04-22T08:54:18;94067.47;;;15.19;64.71
6433;BME280;3249;42.690;23.260;2023-04-22T08:56:49;94057.31;;;15.08;65.57
6433;BME280;3249;42.690;23.260;2023-04-22T08:59:19;94073.13;;;15.11;62.86
6433;BME280;3249;42.690;23.260;2023-04-22T09:01:51;94057.56;;;15.11;63.17
6433;BME280;3249;42.690;23.260;2023-04-22T09:04:21;94064.53;;;15.37;60.56
6433;BME280;3249;42.690;23.260;2023-04-22T09:06:53;94052.78;;;14.93;62.04
6433;BME280;3249;42.690;23.260;2023-04-22T09:09:23;94062.16;;;14.99;62.77
6433;BME280;3249;42.690;23.260;2023-04-22T09:11:53;94052.16;;;15.13;60.11
6433;BME280;3249;42.690;23.260;2023-04-22T09:14:23;94050.13;;;15.20;59.65
6433;BME280;3249;42.690;23.260;2023-04-22T09:16:52;94069.66;;;15.32;56.15
6433;BME280;3249;42.690;23.260;2023-04-22T09:19:23;94036.59;;;15.13;56.46
6433;BME280;3249;42.690;23.260;2023-04-22T09:21:56;94061.34;;;15.30;59.62
6433;BME280;3249;42.690;23.260;2023-04-22T09:24:25;94030.28;;;15.35;52.36
6433;BME280;3249;42.690;23.260;2023-04-22T09:26:55;94066.78;;;15.65;49.40
6433;BME280;3249;42.690;23.260;2023-04-22T09:29:28;94052.28;;;15.33;49.57
6433;BME280;3249;42.690;23.260;2023-04-22T09:31:58;94051.81;;;15.36;53.04
6433;BME280;3249;42.690;23.260;2023-04-22T09:34:27;94038.91;;;15.46;52.81
6433;BME280;3249;42.690;23.260;2023-04-22T09:37:01;94041.91;;;15.74;51.94
6433;BME280;3249;42.690;23.260;2023-04-22T09:39:30;94044.00;;;15.77;50.06
6433;BME280;3249;42.690;23.260;2023-04-22T09:42:02;94033.38;;;15.89;49.45
6433;BME280;3249;42.690;23.260;2023-04-22T09:44:32;94050.88;;;16.08;45.01
6433;BME280;3249;42.690;23.260;2023-04-22T09:47:02;94052.41;;;16.04;45.29
6433;BME280;3249;42.690;23.260;2023-04-22T09:49:35;94053.53;;;16.28;42.91
6433;BME280;3249;42.690;23.260;2023-04-22T09:52:07;94047.66;;;15.91;42.32
6433;BME280;3249;42.690;23.260;2023-04-22T09:54:36;94045.38;;;16.05;41.60
6433;BME280;3249;42.690;23.260;2023-04-22T09:57:08;94044.50;;;16.51;42.73
6433;BME280;3249;42.690;23.260;2023-04-22T09:59:40;94046.59;;;16.54;40.65
6433;BME280;3249;42.690;23.260;2023-04-22T10:02:09;94019.16;;;15.96;47.86
6433;BME280;3249;42.690;23.260;2023-04-22T10:04:38;94025.78;;;15.26;52.03
6433;BME280;3249;42.690;23.260;2023-04-22T10:07:10;94038.94;;;15.51;51.40
6433;BME280;3249;42.690;23.260;2023-04-22T10:09:39;94026.56;;;15.26;51.76
6433;BME280;3249;42.690;23.260;2023-04-22T10:12:08;94032.50;;;14.85;55.22
6433;BME280;3249;42.690;23.260;2023-04-22T10:14:38;94022.28;;;15.05;52.47
6433;BME280;3249;42.690;23.260;2023-04-22T10:17:07;94031.44;;;15.18;54.53
6433;BME280;3249;42.690;23.260;2023-04-22T10:19:38;94021.94;;;15.33;44.12
6433;BME280;3249;42.690;23.260;2023-04-22T10:22:10;94033.19;;;15.49;45.73
6433;BME280;3249;42.690;23.260;2023-04-22T10:24:40;94023.06;;;15.06;46.76
6433;BME280;3249;42.690;23.260;2023-04-22T10:27:10;93983.38;;;14.64;46.47
6433;BME280;3249;42.690;23.260;2023-04-22T10:29:40;94013.81;;;15.20;44.82
6433;BME280;3249;42.690;23.260;2023-04-22T10:32:23;94001.38;;;15.22;45.06
6433;BME280;3249;42.690;23.260;2023-04-22T10:35:11;94014.56;;;15.57;43.85
6433;BME280;3249;42.690;23.260;2023-04-22T10:37:44;94006.50;;;15.48;43.41
6433;BME280;3249;42.690;23.260;2023-04-22T10:40:15;94005.53;;;15.64;43.54
6433;BME280;3249;42.690;23.260;2023-04-22T10:42:47;94011.31;;;15.81;42.22
6433;BME280;3249;42.690;23.260;2023-04-22T10:45:17;94019.91;;;15.87;40.91
6433;BME280;3249;42.690;23.260;2023-04-22T10:47:46;94012.44;;;16.05;40.82
6433;BME280;3249;42.690;23.260;2023-04-22T10:50:18;94010.00;;;15.74;40.22
6433;BME280;3249;42.690;23.260;2023-04-22T10:52:54;94006.44;;;15.95;40.64
6433;BME280;3249;42.690;23.260;2023-04-22T10:55:24;94018.91;;;16.13;42.91
6433;BME280;3249;42.690;23.260;2023-04-22T10:57:53;94015.81;;;16.16;41.15
6433;BME280;3249;42.690;23.260;2023-04-22T11:00:38;93983.25;;;15.73;41.84
6433;BME280;3249;42.690;23.260;2023-04-22T11:03:12;94001.19;;;15.85;41.63
6433;BME280;3249;42.690;23.260;2023-04-22T11:05:42;93999.00;;;15.57;42.35
6433;BME280;3249;42.690;23.260;2023-04-22T11:08:18;94006.13;;;15.91;40.14
6433;BME280;3249;42.690;23.260;2023-04-22T11:10:50;94006.47;;;16.15;39.24
6433;BME280;3249;42.690;23.260;2023-04-22T11:13:20;94009.56;;;16.07;40.00
6433;BME280;3249;42.690;23.260;2023-04-22T11:15:52;93974.41;;;15.64;40.34
6433;BME280;3249;42.690;23.260;2023-04-22T11:18:23;93998.25;;;15.56;41.50
6433;BME280;3249;42.690;23.260;2023-04-22T11:20:53;94013.00;;;15.56;43.06
6433;BME280;3249;42.690;23.260;2023-04-22T11:23:26;94013.88;;;15.76;45.05
6433;BME280;3249;42.690;23.260;2023-04-22T11:25:55;94017.09;;;15.42;44.34
6433;BME280;3249;42.690;23.260;2023-04-22T11:28:25;94011.50;;;15.23;43.91
6433;BME280;3249;42.690;23.260;2023-04-22T11:31:01;94019.53;;;15.22;49.47
6433;BME280;3249;42.690;23.260;2023-04-22T11:33:31;94027.00;;;14.77;52.39
6433;BME280;3249;42.690;23.260;2023-04-22T11:36:01;94031.84;;;14.68;54.04
6433;BME280;3249;42.690;23.260;2023-04-22T11:38:32;94031.94;;;14.47;57.10
6433;BME280;3249;42.690;23.260;2023-04-22T11:41:01;94036.31;;;14.78;57.76
6433;BME280;3249;42.690;23.260;2023-04-22T11:43:30;94050.22;;;14.40;56.40
6433;BME280;3249;42.690;23.260;2023-04-22T11:45:59;94044.69;;;14.53;59.82
6433;BME280;3249;42.690;23.260;2023-04-22T11:48:29;94022.63;;;14.24;59.81
6433;BME280;3249;42.690;23.260;2023-04-22T11:51:08;94032.47;;;14.22;60.11
6433;BME280;3249;42.690;23.260;2023-04-22T11:53:48;94031.00;;;14.31;62.03
6433;BME280;3249;42.690;23.260;2023-04-22T11:56:19;94024.69;;;14.22;66.79
6433;BME280;3249;42.690;23.260;2023-04-22T11:58:48;94038.28;;;14.66;63.87
6433;BME280;3249;42.690;23.260;2023-04-22T12:01:17;94038.00;;;14.62;66.03
6433;BME280;3249;42.690;23.260;2023-04-22T12:03:46;94032.16;;;14.45;65.14
6433;BME280;3249;42.690;23.260;2023-04-22T12:06:16;94042.38;;;14.57;68.25
6433;BME280;3249;42.690;23.260;2023-04-22T12:08:48;94045.09;;;13.97;71.03
6433;BME280;3249;42.690;23.260;2023-04-22T12:11:20;94062.81;;;13.83;76.63
6433;BME280;3249;42.690;23.260;2023-04-22T12:13:49;94063.25;;;13.59;79.79
6433;BME280;3249;42.690;23.260;2023-04-22T12:16:19;94078.09;;;13.85;77.29
6433;BME280;3249;42.690;23.260;2023-04-22T12:18:49;94062.31;;;13.65;80.46
6433;BME280;3249;42.690;23.260;2023-04-22T12:21:20;94057.47;;;13.52;76.78
6433;BME280;3249;42.690;23.260;2023-04-22T12:23:53;94046.66;;;13.55;80.56
6433;BME280;3249;42.690;23.260;2023-04-22T12:26:23;94059.06;;;13.53;82.82
6433;BME280;3249;42.690;23.260;2023-04-22T12:28:53;94053.59;;;13.93;80.62
6433;BME280;3249;42.690;23.260;2023-04-22T12:31:41;94065.63;;;13.44;80.02
6433;BME280;3249;42.690;23.260;2023-04-22T12:34:10;94050.94;;;13.66;80.94
6433;BME280;3249;42.690;23.260;2023-04-22T12:36:39;94049.06;;;13.83;72.18
6433;BME280;3249;42.690;23.260;2023-04-22T12:39:11;94061.72;;;14.01;72.80
6433;BME280;3249;42.690;23.260;2023-04-22T12:41:40;94061.81;;;14.11;73.46
6433;BME280;3249;42.690;23.260;2023-04-22T12:44:09;94049.53;;;13.80;82.58
6433;BME280;3249;42.690;23.260;2023-04-22T12:46:37;94064.59;;;13.83;77.04
6433;BME280;3249;42.690;23.260;2023-04-22T12:49:07;94046.97;;;13.80;71.42
6433;BME280;3249;42.690;23.260;2023-04-22T12:51:39;94042.53;;;13.97;71.94
6433;BME280;3249;42.690;23.260;2023-04-22T12:54:10;94048.28;;;14.04;71.20
6433;BME280;3249;42.690;23.260;2023-04-22T12:56:40;94047.31;;;14.10;75.61
6433;BME280;3249;42.690;23.260;2023-04-22T12:59:09;94051.72;;;13.88;69.60
6433;BME280;3249;42.690;23.260;2023-04-22T13:01:38;94048.22;;;13.99;70.08
6433;BME280;3249;42.690;23.260;2023-04-22T13:04:07;94051.84;;;13.98;70.39
6433;BME280;3249;42.690;23.260;2023-04-22T13:06:36;94065.16;;;13.47;68.29
6433;BME280;3249;42.690;23.260;2023-04-22T13:09:06;94054.00;;;13.63;70.05
6433;BME280;3249;42.690;23.260;2023-04-22T13:11:38;94048.16;;;13.51;68.51
6433;BME280;3249;42.690;23.260;2023-04-22T13:14:07;94045.84;;;13.33;70.00
6433;BME280;3249;42.690;23.260;2023-04-22T13:16:36;94046.88;;;13.53;73.86
6433;BME280;3249;42.690;23.260;2023-04-22T13:19:05;94053.53;;;13.66;66.79
6433;BME280;3249;42.690;23.260;2023-04-22T13:21:34;94045.53;;;13.67;61.57
6433;BME280;3249;42.690;23.260;2023-04-22T13:24:03;94050.72;;;13.67;59.94
6433;BME280;3249;42.690;23.260;2023-04-22T13:26:33;94029.34;;;13.77;58.48
6433;BME280;3249;42.690;23.260;2023-04-22T13:29:05;94043.88;;;14.05;58.74